Terminal Aerodrome Forecast
Issued by NWS Springfield, MO

Home | Current Version | Previous Version | Text Only | Print | Product List | Glossary On
Versions: 1 2 3 4 5 6 7 8 9 10 11 12 13 14 15 16 17 18 19 20
648
FTUS43 KSGF 261720
TAFSGF
TAF
KSGF 261720Z 2618/2718 35010G15KT P6SM SKC
     FM270000 VRB03KT P6SM SKC
     FM271300 24004KT P6SM SKC=

USA.gov is the U.S. government's official web portal to all federal, state and local government web resources and services.